Onweer radar Meer informatie blitzortung!


Regen radar Meer informatie rain snow radar


Andere websites:

Template documentation
and downloads

And another site

Weather-Template Info-Forum

Webcam-Havenmond

Webcam-Havenkantoor

Webcam-Werkhaven

Webcam-Westhaven



Het weer levert geen direct gevaar op.    Er zijn geen waarschuwingen afgegeven.

METAR rapporten vliegvelden

   
EBAW - Antwerp
Gewijzigd: 20-06-2019 11:20
Gedeeltelijk bewolkt  
Gedeeltelijk bewolkt  
   Wind: WZW 16.7 km/h
Wind: WZW 16.7 km/h
Temperatuur: 18°C
Dauwpunt: 13°C
Vochtigheid: 73%
Barometer: 1012 hPa
Bewolking: Gedeeltelijk bewolkt
Zicht: meer dan 10 km
Bewolking: Gedeeltelijk bewolkt 2000 ft
EBAW 200920Z 25009KT 210V290 9999 SCT020 18/13 Q1012 NOSIG
EBLG - Li├Ęge
Gewijzigd: 20-06-2019 11:20
Grotendeels bewolkt  
Grotendeels bewolkt  
   Wind: ZW 13 km/h
Wind: ZW 13 km/h
Temperatuur: 18°C
Dauwpunt: 13°C
Vochtigheid: 73%
Barometer: 1013 hPa
Bewolking: Grotendeels bewolkt
Zicht: meer dan 10 km
Bewolking: Gedeeltelijk bewolkt 2000 ft,
Grotendeels bewolkt 3000 ft
EBLG 200920Z 23007KT 160V270 9999 SCT020 BKN030 18/13 Q1013 TEMPO 4000 SHRA
EBCV - Mons/Bergen
Gewijzigd: 20-06-2019 10:25
Grotendeels bewolkt  
Grotendeels bewolkt  
   Wind: ZW 16.7 km/h
Wind: ZW 16.7 km/h
Barometer: 1013 hPa
Bewolking: Grotendeels bewolkt
Zicht: meer dan 10 km
Bewolking: Grotendeels bewolkt 1700 ft,
Grotendeels bewolkt 10000 ft
EBCV 200825Z AUTO 22009KT 9999 BKN017/// BKN100/// ///// Q1013 WHT
EHBK - Maastricht
Gewijzigd: 20-06-2019 11:25
Grotendeels bewolkt  
Grotendeels bewolkt  
   Wind: WZW 14.8 km/h
Wind: WZW 14.8 km/h
Temperatuur: 19°C
Dauwpunt: 14°C
Vochtigheid: 73%
Barometer: 1012 hPa
Bewolking: Grotendeels bewolkt
Zicht: meer dan 10 km
Bewolking: Gedeeltelijk bewolkt 1900 ft,
Gedeeltelijk bewolkt 2700 ft,
Grotendeels bewolkt 4200 ft
EHBK 200925Z AUTO 24008KT 190V290 9999 SCT019 SCT027 BKN042 19/14 Q1012 NOSIG
ELLX - Luxemburg
Gewijzigd: 20-06-2019 11:20
Gedeeltelijk bewolkt  
Gedeeltelijk bewolkt  
   Wind: Zuiden 18.5 km/h
Wind: Zuiden 18.5 km/h
Temperatuur: 19°C
Dauwpunt: 14°C
Vochtigheid: 73%
Barometer: 1013 hPa
Bewolking: Gedeeltelijk bewolkt
Zicht: meer dan 10 km
Bewolking: Gedeeltelijk bewolkt 1800 ft,
Gedeeltelijk bewolkt 5000 ft
ELLX 200920Z 19010KT 150V230 9999 SCT018TCU SCT050 19/14 Q1013 NOSIG
EBOS - Oostende
Gewijzigd: 20-06-2019 11:20
Gedeeltelijk bewolkt  
Gedeeltelijk bewolkt  
   Wind: Westen 22.2 km/h
Wind: Westen 22.2 km/h
Temperatuur: 17°C
Dauwpunt: 14°C
Vochtigheid: 83%
Barometer: 1012 hPa
Bewolking: Gedeeltelijk bewolkt
Zicht: meer dan 10 km
Bewolking: Licht bewolkt 1000 ft,
Gedeeltelijk bewolkt 1700 ft
EBOS 200920Z 27012KT 9999 FEW010 SCT017 17/14 Q1012 NOSIG

Script ontwikkeld door  Saratoga-weather.org Aangepast voor de template door  Weerstation Leuven

U vindt ons ook hier:

Het Weer Aktueel

European Weather Network

WeatherCloud

Weather Underground

Benelux Weer Netwerk

AWEKAS

Apparatuur in gebruik:

Weerstation
Davis VP2

Weerprogramma
Meteohub

Weercomputer
My Computer

Webleverancier
My provider

Davis VP2

Meteohub

My Computer

My provider